メインページ
METAR-TAF:

METAR-TAF

空港 :

ベナジル・ブット国際空港

イスラマバード, パキスタン

緯度: 33-37N, 経度: 073-06E, 海抜: 507m

現時点の気象観測

当レポートは21分前の23:30(UTC)に作成
北東の風 6kt
気温 28°C
湿度 84%
気圧 1002 hPa
視程: 7000m
高度2500ftの雲はほとんどない, 積乱雲.
高度3000ftの雲は散在している
高度8000ftの千切れ雲あり
激しい雷雨

METAR: OPRN 162330Z 05006KT 7000 TS FEW025CB SCT030 BKN080 28/25 Q1002 NOSIG RMK A2959

時間: 04:51 (23:51 UTC)

予報

当レポートは2時間21分前の21:30(UTC)に作成
予報は16日の 24時(UTC)から 18日の 06時(UTC)まで有効
南東の風 15kt、最大30ktの突風を伴う
視程: 3000m
高度4000ftの雲は散在している
高度10000ftの千切れ雲あり
激しい雷雨, 雨
17日の 06時(UTC)から 17日の 08時(UTC)まで徐々に
南/南東の風 10kt
視程: 4000m
高度3000ftの雲はほとんどない, 塔状積雲.
高度4000ftの雲は散在している
高度10000ftの雲は散在している
近辺で激しい雷雨
17日の 22時(UTC)から 17日の 24時(UTC)まで徐々に
の風 15kt、最大30ktの突風を伴う
視程: 2000m
高度4000ftの雲は散在している
高度10000ftの千切れ雲あり
激しい雷雨, 雨

TAF: OPRN 162130Z 1624/1806 13015G30KT 3000 TSRA FEW030TCU/CB SCT040 BKN100 BECMG 1706/1708 15010KT 4000 VCTS FEW030TCU SCT040 SCT100 BECMG 1722/1724 18015G30KT 2000 TSRA FEW030TCU/CB SCT040 BKN100

4,000以上の空港の気象観測と天気予報(METAR報とTAF報)

利用可能な観測所は地図上に黄色い丸と赤い丸で示す。

丸の上にカーソルを重ねると観測所名を参照できる。

次にクリックすると気象観測と天気予報を参照できる。

マップの切り替え:黒色「×」印の緑ボタンをクリックして拡大、「-」印の緑ボタンをクリックして縮小、緑色の三角印をクリックして隣りの地図に切り替え


METAR-TAF: